createdAt,value
2022-10-19T00:01:04.994Z,96006.72
2022-10-19T00:03:32.612Z,96011.63
2022-10-19T00:05:59.870Z,96009.19
2022-10-19T00:08:26.773Z,96012.88
2022-10-19T00:10:53.340Z,96021.03
2022-10-19T00:13:19.933Z,96026.88
2022-10-19T00:15:46.552Z,96020.06
2022-10-19T00:18:13.114Z,96023.47
2022-10-19T00:20:39.644Z,96016.53
2022-10-19T00:23:06.153Z,96018.44
2022-10-19T00:25:32.771Z,96014.09
2022-10-19T00:27:59.340Z,96012.06
2022-10-19T00:30:25.932Z,96009.72
2022-10-19T00:32:52.501Z,96016.41
2022-10-19T00:35:19.101Z,96009.47
2022-10-19T00:37:45.698Z,96014.22
2022-10-19T00:40:12.441Z,96015.47
2022-10-19T00:42:39.105Z,96007.44
2022-10-19T00:45:15.727Z,96004.56
2022-10-19T00:47:43.745Z,96003.88
2022-10-19T00:50:13.160Z,96010.84
2022-10-19T00:52:39.890Z,96004.16
2022-10-19T00:55:07.946Z,95995.44
2022-10-19T00:57:35.691Z,96001.19
2022-10-19T01:00:06.317Z,95996.13
2022-10-19T01:02:33.169Z,96004.44
2022-10-19T01:05:01.212Z,96000.22
2022-10-19T01:07:28.357Z,96001.03
2022-10-19T01:09:55.913Z,96001.19
2022-10-19T01:12:46.141Z,95994.78
2022-10-19T01:15:29.375Z,95984.97
2022-10-19T01:18:05.118Z,95990.00
2022-10-19T01:20:50.500Z,95994.78
2022-10-19T01:23:38.412Z,95992.44
2022-10-19T01:26:14.428Z,95995.16
2022-10-19T01:28:50.262Z,95986.97
2022-10-19T01:31:24.630Z,95986.97
2022-10-19T01:36:31.746Z,95982.47
2022-10-19T01:39:10.461Z,95984.53
2022-10-19T01:42:12.821Z,95974.31
2022-10-19T01:44:52.007Z,95967.91
2022-10-19T01:47:24.617Z,95970.72
2022-10-19T01:50:03.697Z,95975.22
2022-10-19T01:52:33.356Z,95980.25
2022-10-19T01:55:02.860Z,95971.38
2022-10-19T01:57:36.419Z,95973.56
2022-10-19T02:00:09.239Z,95973.28
2022-10-19T02:02:43.188Z,95974.53
2022-10-19T02:05:12.116Z,95966.34
2022-10-19T02:07:46.317Z,95964.06
2022-10-19T02:12:44.533Z,95963.47
2022-10-19T02:15:17.467Z,95963.59
2022-10-19T02:17:50.724Z,95960.59
2022-10-19T02:20:18.078Z,95961.16
2022-10-19T02:22:44.861Z,95959.09
2022-10-19T02:25:12.476Z,95965.50
2022-10-19T02:27:42.073Z,95964.97
2022-10-19T02:30:15.189Z,95962.25
2022-10-19T02:32:43.325Z,95962.13
2022-10-19T02:35:11.583Z,95959.91
2022-10-19T02:37:38.889Z,95953.50
2022-10-19T02:40:06.311Z,95958.94
2022-10-19T02:42:39.098Z,95950.75
2022-10-19T02:45:05.585Z,95955.25
2022-10-19T02:47:37.304Z,95957.31
2022-10-19T02:50:08.442Z,95956.75
2022-10-19T02:52:39.421Z,95958.22
2022-10-19T02:55:07.322Z,95954.09
2022-10-19T02:57:34.423Z,95949.59
2022-10-19T03:00:01.172Z,95946.72
2022-10-19T03:02:27.779Z,95942.72
2022-10-19T03:04:54.366Z,95945.56
2022-10-19T03:07:21.732Z,95948.16
2022-10-19T03:09:48.355Z,95940.53
2022-10-19T03:12:15.092Z,95943.25
2022-10-19T03:14:42.139Z,95936.38
2022-10-19T03:17:08.741Z,95947.03
2022-10-19T03:19:36.015Z,95937.09
2022-10-19T03:22:03.375Z,95937.53
2022-10-19T03:24:30.581Z,95934.38
2022-10-19T03:26:57.223Z,95933.16
2022-10-19T03:29:24.091Z,95936.16
2022-10-19T03:31:50.724Z,95934.53
2022-10-19T03:34:17.311Z,95937.28
2022-10-19T03:36:43.892Z,95933.47
2022-10-19T03:39:12.424Z,95930.22
2022-10-19T03:41:39.608Z,95937.69
2022-10-19T03:44:07.679Z,95931.69
2022-10-19T03:46:35.487Z,95931.16
2022-10-19T03:49:02.395Z,95925.44
2022-10-19T03:51:31.080Z,95924.34
2022-10-19T03:54:00.806Z,95920.13
2022-10-19T03:56:29.103Z,95917.38
2022-10-19T03:58:57.339Z,95920.78
2022-10-19T04:01:26.022Z,95913.16
2022-10-19T04:04:00.738Z,95917.53
2022-10-19T04:06:33.342Z,95919.59
2022-10-19T04:08:59.973Z,95910.25
2022-10-19T04:11:30.193Z,95916.66
2022-10-19T04:13:59.027Z,95914.50
2022-10-19T04:16:27.936Z,95918.44
2022-10-19T04:18:55.048Z,95919.34
2022-10-19T04:21:38.286Z,95915.50
2022-10-19T04:24:09.088Z,95911.53
2022-10-19T04:26:43.867Z,95911.47
2022-10-19T04:29:11.277Z,95919.97
2022-10-19T04:31:38.279Z,95911.41
2022-10-19T04:34:05.836Z,95913.31
2022-10-19T04:36:32.853Z,95908.81
2022-10-19T04:38:59.633Z,95905.09
2022-10-19T04:41:26.344Z,95910.81
2022-10-19T04:44:00.340Z,95911.34
2022-10-19T04:46:28.080Z,95907.13
2022-10-19T04:48:55.722Z,95910.53
2022-10-19T04:51:22.859Z,95912.16
2022-10-19T04:53:49.637Z,95900.97
2022-10-19T04:56:19.848Z,95905.19
2022-10-19T04:58:47.035Z,95903.56
2022-10-19T05:01:16.405Z,95906.84
2022-10-19T05:03:43.434Z,95905.50
2022-10-19T05:06:11.600Z,95906.16
2022-10-19T05:08:38.468Z,95901.09
2022-10-19T05:11:09.170Z,95898.25
2022-10-19T05:13:36.194Z,95896.47
2022-10-19T05:16:04.969Z,95891.41
2022-10-19T05:18:32.152Z,95893.06
2022-10-19T05:21:02.042Z,95892.78
2022-10-19T05:23:29.577Z,95898.78
2022-10-19T05:26:10.388Z,95891.38
2022-10-19T05:28:37.475Z,95891.13
2022-10-19T05:31:13.066Z,95890.97
2022-10-19T05:33:40.579Z,95891.94
2022-10-19T05:36:28.170Z,95889.47
2022-10-19T05:38:56.961Z,95884.00
2022-10-19T05:41:25.223Z,95885.25
2022-10-19T05:43:54.081Z,95880.00
2022-10-19T05:46:20.815Z,95875.56
2022-10-19T05:48:47.593Z,95886.28
2022-10-19T05:51:16.979Z,95889.25
2022-10-19T05:53:44.198Z,95882.59
2022-10-19T05:56:18.537Z,95881.56
2022-10-19T05:58:45.736Z,95890.59
2022-10-19T06:01:13.963Z,95880.22
2022-10-19T06:03:40.891Z,95889.63
2022-10-19T06:06:08.808Z,95884.69
2022-10-19T06:08:36.418Z,95892.81
2022-10-19T06:11:11.935Z,95888.72
2022-10-19T06:13:39.613Z,95889.81
2022-10-19T06:16:07.657Z,95888.66
2022-10-19T06:18:34.908Z,95885.28
2022-10-19T06:21:04.046Z,95898.63
2022-10-19T06:23:31.923Z,95887.56
2022-10-19T06:25:58.596Z,95891.16
2022-10-19T06:28:25.237Z,95893.44
2022-10-19T06:30:51.852Z,95902.03
2022-10-19T06:33:18.560Z,95898.47
2022-10-19T06:35:45.113Z,95903.06
2022-10-19T06:38:13.774Z,95901.66
2022-10-19T06:40:40.619Z,95896.03
2022-10-19T06:43:07.283Z,95907.44
2022-10-19T06:45:36.003Z,95908.13
2022-10-19T06:48:06.588Z,95912.22
2022-10-19T06:50:35.315Z,95924.78
2022-10-19T06:53:01.917Z,95917.25
2022-10-19T06:55:28.534Z,95922.50
2022-10-19T06:57:55.108Z,95923.53
2022-10-19T07:00:21.668Z,95915.94
2022-10-19T07:02:48.282Z,95931.09
2022-10-19T07:05:14.915Z,95933.53
2022-10-19T07:07:41.567Z,95928.50
2022-10-19T07:10:08.494Z,95919.72
2022-10-19T07:12:35.060Z,95915.66
2022-10-19T07:15:01.676Z,95918.19
2022-10-19T07:17:28.445Z,95921.81
2022-10-19T07:19:55.100Z,95916.28
2022-10-19T07:22:27.214Z,95920.94
2022-10-19T07:24:54.806Z,95922.00
2022-10-19T07:27:21.706Z,95918.63
2022-10-19T07:29:48.425Z,95920.94
2022-10-19T07:32:15.031Z,95926.22
2022-10-19T07:34:41.616Z,95920.25
2022-10-19T07:37:08.185Z,95921.09
2022-10-19T07:39:34.784Z,95919.66
2022-10-19T07:42:01.339Z,95920.34
2022-10-19T07:44:28.016Z,95916.44
2022-10-19T07:46:54.619Z,95920.31
2022-10-19T07:49:21.767Z,95920.19
2022-10-19T07:51:48.889Z,95917.06
2022-10-19T07:54:15.500Z,95913.84
2022-10-19T07:56:42.079Z,95923.22
2022-10-19T07:59:10.026Z,95925.94
2022-10-19T08:01:41.300Z,95921.91
2022-10-19T08:06:54.711Z,95924.69
2022-10-19T08:09:50.839Z,95925.06
2022-10-19T08:12:12.384Z,95920.53
2022-10-19T08:14:41.390Z,95922.34
2022-10-19T08:17:11.584Z,95923.78
2022-10-19T08:19:43.212Z,95929.38
2022-10-19T08:22:10.803Z,95932.13
2022-10-19T08:24:37.585Z,95937.50
2022-10-19T08:27:04.359Z,95930.03
2022-10-19T08:29:31.747Z,95928.75
2022-10-19T08:31:59.182Z,95929.66
2022-10-19T08:34:26.038Z,95926.56
2022-10-19T08:36:52.614Z,95918.31
2022-10-19T08:39:19.290Z,95920.41
2022-10-19T08:42:17.546Z,95914.53
2022-10-19T08:45:00.614Z,95914.91
2022-10-19T08:47:59.661Z,95926.63
2022-10-19T08:50:34.285Z,95918.84
2022-10-19T08:53:04.841Z,95918.22
2022-10-19T08:56:08.733Z,95914.38
2022-10-19T08:59:17.206Z,95910.00
2022-10-19T09:02:40.971Z,95908.34
2022-10-19T09:05:28.589Z,95915.91
2022-10-19T09:07:55.590Z,95914.16
2022-10-19T09:10:26.368Z,95912.03
2022-10-19T09:13:00.953Z,95917.25
2022-10-19T09:15:45.714Z,95909.78
2022-10-19T09:18:21.243Z,95907.34
2022-10-19T09:20:55.903Z,95914.47
2022-10-19T09:23:26.056Z,95909.94
2022-10-19T09:25:53.620Z,95919.38
2022-10-19T09:28:41.817Z,95914.16
2022-10-19T09:31:15.524Z,95907.81
2022-10-19T09:33:45.281Z,95909.59
2022-10-19T09:36:22.307Z,95915.47
2022-10-19T09:38:54.244Z,95916.16
2022-10-19T09:41:23.492Z,95912.72
2022-10-19T09:43:55.643Z,95911.72
2022-10-19T09:47:33.573Z,95910.44
2022-10-19T09:50:25.986Z,95915.00
2022-10-19T09:52:54.362Z,95912.88
2022-10-19T09:55:55.922Z,95910.91
2022-10-19T09:58:26.196Z,95908.47
2022-10-19T10:00:57.697Z,95907.97
2022-10-19T10:03:27.124Z,95903.59
2022-10-19T10:05:56.636Z,95905.88
2022-10-19T10:08:27.091Z,95912.38
2022-10-19T10:10:59.974Z,95910.75
2022-10-19T10:16:16.587Z,95904.22
2022-10-19T10:18:56.854Z,95917.75
2022-10-19T10:21:34.529Z,95904.38
2022-10-19T10:24:03.138Z,95911.34
2022-10-19T10:26:29.772Z,95905.78
2022-10-19T10:28:59.203Z,95906.63
2022-10-19T10:31:45.693Z,95903.47
2022-10-19T10:34:45.683Z,95901.94
2022-10-19T10:37:22.204Z,95899.66
2022-10-19T10:39:53.633Z,95899.34
2022-10-19T10:42:28.363Z,95892.28
2022-10-19T10:44:56.409Z,95897.19
2022-10-19T10:47:23.387Z,95892.31
2022-10-19T10:49:56.507Z,95895.28
2022-10-19T10:52:23.894Z,95894.09
2022-10-19T10:54:59.594Z,95889.56
2022-10-19T10:57:32.138Z,95886.59
2022-10-19T11:00:19.464Z,95881.72
2022-10-19T11:03:06.712Z,95877.47
2022-10-19T11:05:34.552Z,95877.72
2022-10-19T11:08:13.879Z,95873.84
2022-10-19T11:10:47.561Z,95866.06
2022-10-19T11:13:35.448Z,95861.97
2022-10-19T11:16:14.108Z,95864.53
2022-10-19T11:18:48.814Z,95858.41
2022-10-19T11:21:47.494Z,95858.97
2022-10-19T11:24:39.103Z,95855.97
2022-10-19T11:27:34.492Z,95855.03
2022-10-19T11:30:13.383Z,95852.25
2022-10-19T11:32:46.034Z,95845.22
2022-10-19T11:35:24.813Z,95840.88
2022-10-19T11:38:19.817Z,95832.00
2022-10-19T11:41:17.746Z,95833.72
2022-10-19T11:44:02.590Z,95832.63
2022-10-19T11:46:55.322Z,95826.50
2022-10-19T11:49:30.847Z,95827.06
2022-10-19T11:52:12.195Z,95822.13
2022-10-19T11:54:44.678Z,95821.84
2022-10-19T11:57:23.868Z,95816.00
2022-10-19T11:59:50.433Z,95817.22
2022-10-19T12:02:54.371Z,95808.72
2022-10-19T12:05:20.988Z,95807.72
2022-10-19T12:07:50.604Z,95810.19
2022-10-19T12:10:43.075Z,95806.34
2022-10-19T12:13:14.846Z,95807.53
2022-10-19T12:15:53.882Z,95808.53
2022-10-19T12:18:39.426Z,95809.81
2022-10-19T12:21:17.433Z,95799.81
2022-10-19T12:23:46.691Z,95801.19
2022-10-19T12:28:55.615Z,95792.84
2022-10-19T12:31:24.830Z,95789.06
2022-10-19T12:34:10.184Z,95782.03
2022-10-19T12:36:55.101Z,95776.13
2022-10-19T12:39:59.990Z,95778.56
2022-10-19T12:43:10.208Z,95771.09
2022-10-19T12:45:43.985Z,95765.91
2022-10-19T12:48:14.302Z,95763.59
2022-10-19T12:50:49.925Z,95761.34
2022-10-19T12:53:49.039Z,95761.00
2022-10-19T12:56:20.570Z,95758.19
2022-10-19T12:58:53.099Z,95757.00
2022-10-19T13:01:24.189Z,95757.16
2022-10-19T13:04:07.484Z,95754.59
2022-10-19T13:06:37.849Z,95742.13
2022-10-19T13:09:09.853Z,95743.75
2022-10-19T13:11:38.363Z,95739.97
2022-10-19T13:14:11.127Z,95737.44
2022-10-19T13:16:37.631Z,95737.38
2022-10-19T13:19:04.183Z,95726.53
2022-10-19T13:21:51.926Z,95726.34
2022-10-19T13:24:24.644Z,95722.59
2022-10-19T13:27:03.540Z,95729.19
2022-10-19T13:29:39.540Z,95727.91
2022-10-19T13:32:32.976Z,95727.53
2022-10-19T13:35:24.667Z,95725.78
2022-10-19T13:38:11.042Z,95720.91
2022-10-19T13:40:55.228Z,95722.31
2022-10-19T13:43:25.931Z,95724.03
2022-10-19T13:46:00.273Z,95720.78
2022-10-19T13:48:44.267Z,95714.28
2022-10-19T13:51:19.893Z,95709.91
2022-10-19T13:54:06.202Z,95715.47
2022-10-19T13:57:09.452Z,95710.88
2022-10-19T14:00:08.448Z,95705.81
2022-10-19T14:02:47.502Z,95705.44
2022-10-19T14:05:47.582Z,95698.63
2022-10-19T14:08:23.380Z,95699.22
2022-10-19T14:11:01.082Z,95691.56
2022-10-19T14:13:28.465Z,95689.84
2022-10-19T14:15:57.179Z,95679.28
2022-10-19T14:18:29.741Z,95670.91
2022-10-19T14:21:08.346Z,95666.06
2022-10-19T14:23:38.053Z,95669.34
2022-10-19T14:26:11.496Z,95664.56
2022-10-19T14:28:39.743Z,95668.72
2022-10-19T14:31:17.165Z,95666.34
2022-10-19T14:33:47.857Z,95674.03
2022-10-19T14:36:17.750Z,95672.56
2022-10-19T14:38:44.904Z,95671.25
2022-10-19T14:41:21.454Z,95673.13
2022-10-19T14:43:48.075Z,95667.34
2022-10-19T14:46:16.179Z,95670.25
2022-10-19T14:48:48.737Z,95661.69
2022-10-19T14:51:36.653Z,95659.16
2022-10-19T14:54:14.584Z,95660.66
2022-10-19T14:56:45.286Z,95674.69
2022-10-19T14:59:29.516Z,95666.66
2022-10-19T15:02:00.128Z,95667.16
2022-10-19T15:04:31.217Z,95666.78
2022-10-19T15:07:02.250Z,95659.81
2022-10-19T15:09:47.024Z,95660.50
2022-10-19T15:12:17.912Z,95659.06
2022-10-19T15:14:46.506Z,95658.75
2022-10-19T15:17:31.168Z,95661.66
2022-10-19T15:20:02.673Z,95660.38
2022-10-19T15:22:39.310Z,95662.00
2022-10-19T15:25:05.870Z,95656.28
2022-10-19T15:27:36.576Z,95652.25
2022-10-19T15:30:18.380Z,95646.56
2022-10-19T15:32:50.311Z,95644.31
2022-10-19T15:35:19.985Z,95638.63
2022-10-19T15:37:49.217Z,95639.13
2022-10-19T15:40:25.687Z,95640.09
2022-10-19T15:42:52.605Z,95630.81
2022-10-19T15:45:35.687Z,95638.59
2022-10-19T15:48:16.194Z,95628.22
2022-10-19T15:50:44.745Z,95628.94
2022-10-19T15:53:11.326Z,95629.09
2022-10-19T15:55:37.891Z,95631.81
2022-10-19T15:58:04.442Z,95631.44
2022-10-19T16:00:31.683Z,95630.31
2022-10-19T16:02:59.788Z,95618.75
2022-10-19T16:05:26.465Z,95622.09
2022-10-19T16:07:53.388Z,95615.50
2022-10-19T16:10:25.484Z,95618.38
2022-10-19T16:12:52.234Z,95617.34
2022-10-19T16:15:24.560Z,95619.56
2022-10-19T16:17:59.045Z,95622.91
2022-10-19T16:20:27.701Z,95620.31
2022-10-19T16:22:54.539Z,95623.63
2022-10-19T16:25:21.203Z,95620.81
2022-10-19T16:27:47.838Z,95616.53
2022-10-19T16:30:14.761Z,95616.91
2022-10-19T16:35:10.062Z,95618.88
2022-10-19T16:37:37.167Z,95625.97
2022-10-19T16:40:05.305Z,95622.50
2022-10-19T16:42:32.715Z,95633.59
2022-10-19T16:44:59.541Z,95629.31
2022-10-19T16:47:26.203Z,95624.94
2022-10-19T16:50:00.502Z,95623.16
2022-10-19T16:52:28.808Z,95627.66
2022-10-19T16:54:55.473Z,95624.03
2022-10-19T16:57:22.074Z,95625.75
2022-10-19T17:02:21.417Z,95618.91
2022-10-19T17:04:48.099Z,95618.19
2022-10-19T17:07:15.381Z,95620.81
2022-10-19T17:09:42.886Z,95625.91
2022-10-19T17:12:10.975Z,95623.06
2022-10-19T17:14:39.742Z,95626.31
2022-10-19T17:17:06.474Z,95613.84
2022-10-19T17:19:33.599Z,95619.06
2022-10-19T17:22:01.842Z,95625.03
2022-10-19T17:24:28.525Z,95626.63
2022-10-19T17:26:55.165Z,95618.34
2022-10-19T17:29:22.731Z,95621.38
2022-10-19T17:31:49.677Z,95623.47
2022-10-19T17:34:17.534Z,95622.28
2022-10-19T17:36:45.759Z,95619.59
2022-10-19T17:39:17.639Z,95631.16
2022-10-19T17:41:46.002Z,95622.91
2022-10-19T17:44:14.468Z,95632.38
2022-10-19T17:46:41.259Z,95631.13
2022-10-19T17:49:08.136Z,95634.88
2022-10-19T17:51:36.282Z,95636.38
2022-10-19T17:54:08.288Z,95636.44
2022-10-19T17:56:36.609Z,95642.44
2022-10-19T17:59:04.480Z,95639.84
2022-10-19T18:01:31.390Z,95638.31
2022-10-19T18:03:58.047Z,95638.81
2022-10-19T18:06:31.588Z,95642.06
2022-10-19T18:09:00.324Z,95639.16
2022-10-19T18:11:34.477Z,95641.09
2022-10-19T18:14:01.128Z,95647.41
2022-10-19T18:16:29.171Z,95649.19
2022-10-19T18:18:57.602Z,95647.56
2022-10-19T18:21:31.068Z,95641.41
2022-10-19T18:24:00.127Z,95631.53
2022-10-19T18:26:29.206Z,95632.69
2022-10-19T18:28:57.007Z,95632.69
2022-10-19T18:31:31.962Z,95633.31
2022-10-19T18:34:01.753Z,95630.72
2022-10-19T18:36:29.314Z,95630.88
2022-10-19T18:38:58.125Z,95623.09
2022-10-19T18:41:25.209Z,95622.44
2022-10-19T18:43:54.229Z,95615.31
2022-10-19T18:46:22.368Z,95615.78
2022-10-19T18:48:49.863Z,95605.34
2022-10-19T18:51:17.992Z,95605.50
2022-10-19T18:53:45.678Z,95599.13
2022-10-19T18:56:14.901Z,95596.09
2022-10-19T18:58:41.775Z,95603.69
2022-10-19T19:01:17.629Z,95597.31
2022-10-19T19:03:46.708Z,95603.91
2022-10-19T19:06:16.574Z,95592.81
2022-10-19T19:11:19.911Z,95603.69
2022-10-19T19:13:52.072Z,95599.41
2022-10-19T19:16:19.097Z,95592.22
2022-10-19T19:18:45.739Z,95595.28
2022-10-19T19:21:21.724Z,95585.50
2022-10-19T19:23:49.214Z,95583.81
2022-10-19T19:26:16.681Z,95584.53
2022-10-19T19:28:46.297Z,95585.38
2022-10-19T19:31:17.368Z,95584.94
2022-10-19T19:33:45.384Z,95587.44
2022-10-19T19:36:13.681Z,95587.47
2022-10-19T19:38:40.659Z,95578.78
2022-10-19T19:41:09.434Z,95578.41
2022-10-19T19:43:37.666Z,95574.75
2022-10-19T19:46:12.412Z,95575.06
2022-10-19T19:48:40.250Z,95576.34
2022-10-19T19:51:11.765Z,95575.44
2022-10-19T19:53:38.421Z,95568.38
2022-10-19T19:56:10.061Z,95571.22
2022-10-19T19:58:36.926Z,95576.94
2022-10-19T20:01:15.735Z,95564.63
2022-10-19T20:03:43.355Z,95575.34
2022-10-19T20:06:10.574Z,95572.94
2022-10-19T20:08:37.994Z,95576.22
2022-10-19T20:11:07.597Z,95575.94
2022-10-19T20:13:34.892Z,95580.03
2022-10-19T20:16:13.923Z,95583.53
2022-10-19T20:18:43.750Z,95575.25
2022-10-19T20:21:10.472Z,95570.00
2022-10-19T20:23:37.205Z,95574.19
2022-10-19T20:26:04.248Z,95579.50
2022-10-19T20:28:34.031Z,95571.31
2022-10-19T20:31:09.349Z,95572.44
2022-10-19T20:33:38.851Z,95572.78
2022-10-19T20:36:07.762Z,95568.59
2022-10-19T20:38:35.451Z,95568.06
2022-10-19T20:41:08.186Z,95571.69
2022-10-19T20:43:38.206Z,95568.59
2022-10-19T20:46:11.363Z,95568.84
2022-10-19T20:48:38.022Z,95568.03
2022-10-19T20:51:30.532Z,95569.66
2022-10-19T20:54:00.589Z,95567.34
2022-10-19T20:56:29.499Z,95577.50
2022-10-19T20:58:58.536Z,95575.84
2022-10-19T21:01:26.433Z,95564.84
2022-10-19T21:04:04.718Z,95563.78
2022-10-19T21:06:33.693Z,95552.22
2022-10-19T21:09:00.949Z,95549.66
2022-10-19T21:11:33.747Z,95545.47
2022-10-19T21:14:09.009Z,95556.00
2022-10-19T21:16:37.614Z,95556.44
2022-10-19T21:19:11.198Z,95551.53
2022-10-19T21:21:43.622Z,95553.56
2022-10-19T21:24:13.148Z,95558.44
2022-10-19T21:26:41.232Z,95546.53
2022-10-19T21:29:09.686Z,95548.16
2022-10-19T21:31:38.463Z,95543.13
2022-10-19T21:34:11.864Z,95536.34
2022-10-19T21:36:38.525Z,95534.56
2022-10-19T21:39:05.337Z,95532.56
2022-10-19T21:41:32.465Z,95530.00
2022-10-19T21:43:59.613Z,95527.41
2022-10-19T21:46:26.375Z,95526.44
2022-10-19T21:48:54.343Z,95514.63
2022-10-19T21:51:24.031Z,95519.09
2022-10-19T21:53:51.121Z,95515.31
2022-10-19T21:56:17.744Z,95521.44
2022-10-19T21:58:45.824Z,95521.56
2022-10-19T22:01:12.498Z,95515.72
2022-10-19T22:03:39.195Z,95506.50
2022-10-19T22:06:06.143Z,95504.59
2022-10-19T22:08:32.853Z,95494.56
2022-10-19T22:11:04.802Z,95498.75
2022-10-19T22:13:31.350Z,95488.44
2022-10-19T22:16:09.859Z,95492.78
2022-10-19T22:18:36.848Z,95492.09
2022-10-19T22:21:09.381Z,95494.69
2022-10-19T22:23:36.225Z,95493.88
2022-10-19T22:26:12.208Z,95492.25
2022-10-19T22:28:38.848Z,95494.97
2022-10-19T22:31:05.577Z,95495.09
2022-10-19T22:33:32.178Z,95497.69
2022-10-19T22:36:01.027Z,95491.28
2022-10-19T22:38:28.965Z,95499.56
2022-10-19T22:40:55.579Z,95492.78
2022-10-19T22:43:22.128Z,95490.19
2022-10-19T22:45:51.711Z,95484.63
2022-10-19T22:48:19.356Z,95476.22
2022-10-19T22:50:46.604Z,95482.47
2022-10-19T22:53:13.570Z,95476.22
2022-10-19T22:55:40.308Z,95472.72
2022-10-19T22:58:08.767Z,95472.41
2022-10-19T23:00:36.059Z,95464.53
2022-10-19T23:03:02.597Z,95470.78
2022-10-19T23:05:29.176Z,95469.28
2022-10-19T23:07:55.745Z,95469.50
2022-10-19T23:10:22.628Z,95479.97
2022-10-19T23:12:51.334Z,95472.09
2022-10-19T23:15:18.340Z,95473.75
2022-10-19T23:17:45.342Z,95473.75
2022-10-19T23:20:12.970Z,95465.38
2022-10-19T23:22:39.936Z,95465.66
2022-10-19T23:25:07.585Z,95463.75
2022-10-19T23:27:34.594Z,95466.47
2022-10-19T23:30:02.223Z,95465.41
2022-10-19T23:32:28.797Z,95464.06
2022-10-19T23:34:55.434Z,95470.81
2022-10-19T23:37:22.033Z,95475.31
2022-10-19T23:39:48.594Z,95470.72
2022-10-19T23:42:15.273Z,95461.88
2022-10-19T23:44:41.819Z,95450.19
2022-10-19T23:47:08.381Z,95453.75
2022-10-19T23:49:34.914Z,95450.19
2022-10-19T23:52:01.504Z,95460.38
2022-10-19T23:54:28.043Z,95457.53
2022-10-19T23:56:54.621Z,95467.03
2022-10-19T23:59:21.279Z,95462.41
